Time;durP1;ratioP1;P1;durP2;ratioP2;P2;SDS_P1;SDS_P2;PMS_P1;PMS_P2;Temp;Humidity;BMP_temperature;BMP_pressure;BME280_temperature;BME280_humidity;BME280_pressure;Samples;Min_cycle;Max_cycle;Signal;HPM_P1;HPM_P2
2023/02/07 00:00:43;;;;;;;64.88;9.20;;;;;;;;;;5071394;28;20307;-67
2023/02/07 00:03:10;;;;;;;64.63;8.98;;;;;;;;;;5071387;28;20202;-67
2023/02/07 00:05:39;;;;;;;64.45;8.35;;;;;;;;;;5071692;28;20247;-67
2023/02/07 00:08:06;;;;;;;67.75;9.73;;;;;;;;;;5071256;28;20207;-67
2023/02/07 00:10:34;;;;;;;66.22;9.82;;;;;;;;;;5071200;28;20295;-67
2023/02/07 00:13:01;;;;;;;65.53;9.63;;;;;;;;;;5071320;28;20665;-67
2023/02/07 00:15:28;;;;;;;67.95;9.63;;;;;;;;;;5071259;28;20203;-67
2023/02/07 00:17:55;;;;;;;64.47;9.15;;;;;;;;;;5071307;28;20202;-67
2023/02/07 00:20:24;;;;;;;65.85;10.25;;;;;;;;;;5074858;28;20301;-67
2023/02/07 00:22:54;;;;;;;65.78;9.95;;;;;;;;;;5074869;28;20202;-67
2023/02/07 00:25:21;;;;;;;65.97;9.48;;;;;;;;;;5075005;28;20251;-67
2023/02/07 00:27:48;;;;;;;65.25;9.45;;;;;;;;;;5074808;28;20697;-67
2023/02/07 00:30:15;;;;;;;67.10;9.73;;;;;;;;;;5074707;28;20201;-67
2023/02/07 00:32:42;;;;;;;64.88;10.23;;;;;;;;;;5074976;28;20712;-67
2023/02/07 00:35:10;;;;;;;67.72;10.02;;;;;;;;;;5074562;28;20228;-67
2023/02/07 00:37:37;;;;;;;67.22;10.15;;;;;;;;;;5074909;28;20577;-67
2023/02/07 00:40:06;;;;;;;69.28;10.32;;;;;;;;;;5074451;28;20614;-67
2023/02/07 00:42:33;;;;;;;68.40;10.80;;;;;;;;;;5074780;28;20205;-67
2023/02/07 00:45:00;;;;;;;68.95;11.15;;;;;;;;;;5074515;28;20715;-67
2023/02/07 00:47:27;;;;;;;70.60;11.02;;;;;;;;;;5074397;28;20233;-67
2023/02/07 00:49:54;;;;;;;69.70;11.10;;;;;;;;;;5074396;28;20213;-67
2023/02/07 00:52:21;;;;;;;66.43;10.75;;;;;;;;;;5074543;28;20600;-67
2023/02/07 00:54:49;;;;;;;69.78;11.73;;;;;;;;;;5074443;28;20229;-67
2023/02/07 00:57:17;;;;;;;71.80;11.63;;;;;;;;;;5074398;28;20232;-67
2023/02/07 00:59:44;;;;;;;68.47;10.13;;;;;;;;;;5074059;28;20261;-67
2023/02/07 01:02:11;;;;;;;69.15;11.60;;;;;;;;;;5074377;28;20213;-67
2023/02/07 01:04:38;;;;;;;71.70;12.43;;;;;;;;;;5074552;28;20231;-67
2023/02/07 01:07:06;;;;;;;68.78;10.60;;;;;;;;;;5074357;28;20214;-67
2023/02/07 01:09:33;;;;;;;69.90;11.73;;;;;;;;;;5073792;28;20208;-67
2023/02/07 01:12:00;;;;;;;71.60;12.75;;;;;;;;;;5073964;28;20213;-67
2023/02/07 01:14:28;;;;;;;72.07;13.00;;;;;;;;;;5074048;28;20228;-67
2023/02/07 01:16:55;;;;;;;71.97;13.00;;;;;;;;;;5074315;28;20575;-67
2023/02/07 01:19:23;;;;;;;71.18;11.95;;;;;;;;;;5073962;28;20216;-67
2023/02/07 01:21:50;;;;;;;71.50;13.60;;;;;;;;;;5074099;28;20205;-67
2023/02/07 01:24:18;;;;;;;72.18;13.18;;;;;;;;;;5073804;28;20330;-67
2023/02/07 01:26:45;;;;;;;71.75;12.52;;;;;;;;;;5073852;28;20232;-67
2023/02/07 01:29:14;;;;;;;71.53;12.95;;;;;;;;;;5073047;28;20210;-67
2023/02/07 01:31:43;;;;;;;72.18;12.68;;;;;;;;;;5073974;28;20210;-66
2023/02/07 01:34:12;;;;;;;74.22;13.15;;;;;;;;;;5073724;28;20227;-67
2023/02/07 01:36:39;;;;;;;70.20;12.55;;;;;;;;;;5073798;28;20205;-67
2023/02/07 01:39:06;;;;;;;71.70;13.00;;;;;;;;;;5073423;28;20271;-67
2023/02/07 01:41:33;;;;;;;72.18;13.85;;;;;;;;;;5073507;28;20292;-67
2023/02/07 01:44:02;;;;;;;75.00;13.68;;;;;;;;;;5073349;28;20221;-67
2023/02/07 01:46:29;;;;;;;72.65;13.38;;;;;;;;;;5073393;28;20210;-67
2023/02/07 01:48:59;;;;;;;72.22;14.13;;;;;;;;;;5073245;28;20537;-67
2023/02/07 01:51:27;;;;;;;72.28;14.10;;;;;;;;;;5073456;28;20211;-67
2023/02/07 01:53:56;;;;;;;76.30;13.27;;;;;;;;;;5073240;28;20777;-67
2023/02/07 01:56:24;;;;;;;70.63;12.98;;;;;;;;;;5073058;28;20210;-67
2023/02/07 01:58:52;;;;;;;72.28;14.30;;;;;;;;;;5073094;28;20212;-67
2023/02/07 02:01:23;;;;;;;70.28;12.98;;;;;;;;;;5073143;28;20221;-67
2023/02/07 02:03:51;;;;;;;71.68;13.50;;;;;;;;;;5073114;28;20729;-67
2023/02/07 02:06:20;;;;;;;71.70;14.45;;;;;;;;;;5073137;28;20206;-67
2023/02/07 02:08:47;;;;;;;72.28;14.20;;;;;;;;;;5072772;28;20346;-66
2023/02/07 02:11:22;;;;;;;72.50;15.27;;;;;;;;;;5073140;28;20205;-67
2023/02/07 02:13:55;;;;;;;76.93;15.55;;;;;;;;;;5072790;28;20231;-67
2023/02/07 02:16:27;;;;;;;74.90;15.25;;;;;;;;;;5073104;28;20216;-67
2023/02/07 02:19:16;;;;;;;71.95;14.65;;;;;;;;;;5072521;28;20210;-67
2023/02/07 02:22:00;;;;;;;72.90;13.88;;;;;;;;;;5047369;28;20205;-67
2023/02/07 02:24:39;;;;;;;72.55;14.98;;;;;;;;;;5072315;28;20242;-67
2023/02/07 02:27:10;;;;;;;77.05;16.10;;;;;;;;;;5072684;28;20696;-67
2023/02/07 02:29:45;;;;;;;73.35;15.40;;;;;;;;;;5072204;28;20205;-67
2023/02/07 02:32:27;;;;;;;74.40;15.50;;;;;;;;;;5072686;28;20758;-67
2023/02/07 02:34:59;;;;;;;76.97;16.15;;;;;;;;;;5072588;28;20232;-67
2023/02/07 02:37:31;;;;;;;72.57;15.93;;;;;;;;;;5072616;28;20216;-67
2023/02/07 02:40:04;;;;;;;74.93;15.45;;;;;;;;;;5070333;28;20601;-67
2023/02/07 02:42:34;;;;;;;71.97;14.10;;;;;;;;;;5071870;28;20220;-67
2023/02/07 02:45:03;;;;;;;73.70;14.50;;;;;;;;;;5072577;28;20221;-67
2023/02/07 02:47:31;;;;;;;72.53;15.68;;;;;;;;;;5072502;28;20555;-67
2023/02/07 02:50:00;;;;;;;73.80;14.77;;;;;;;;;;5072320;28;20231;-67
2023/02/07 02:52:27;;;;;;;73.60;14.27;;;;;;;;;;5072166;28;20209;-67
2023/02/07 02:54:54;;;;;;;73.22;15.07;;;;;;;;;;5072218;28;20227;-67
2023/02/07 02:57:33;;;;;;;78.45;15.77;;;;;;;;;;5072197;28;20201;-67
2023/02/07 03:00:07;;;;;;;77.60;15.15;;;;;;;;;;5072107;28;20206;-67
2023/02/07 03:02:39;;;;;;;75.70;15.95;;;;;;;;;;5072248;28;20300;-67
2023/02/07 03:05:19;;;;;;;73.82;15.32;;;;;;;;;;5072163;28;20702;-67
2023/02/07 03:07:54;;;;;;;76.82;16.33;;;;;;;;;;5072104;28;20207;-67
2023/02/07 03:10:28;;;;;;;74.13;16.13;;;;;;;;;;5072026;28;20215;-67
2023/02/07 03:12:58;;;;;;;76.05;16.65;;;;;;;;;;5072193;28;20644;-67
2023/02/07 03:15:31;;;;;;;76.80;17.17;;;;;;;;;;5072016;28;20244;-67
2023/02/07 03:18:00;;;;;;;76.13;16.75;;;;;;;;;;5071912;28;20224;-67
2023/02/07 03:20:31;;;;;;;79.57;16.48;;;;;;;;;;5071664;28;20203;-67
2023/02/07 03:22:59;;;;;;;74.63;16.38;;;;;;;;;;5071761;28;20292;-67
2023/02/07 03:25:27;;;;;;;77.30;15.43;;;;;;;;;;5072083;28;20259;-67
2023/02/07 03:27:54;;;;;;;73.95;15.95;;;;;;;;;;5072069;28;20209;-67
2023/02/07 03:30:23;;;;;;;75.78;16.13;;;;;;;;;;5072043;28;20216;-67
2023/02/07 03:32:52;;;;;;;76.10;14.88;;;;;;;;;;5071570;28;20736;-67
2023/02/07 03:35:21;;;;;;;74.47;15.60;;;;;;;;;;5072065;28;20275;-67
2023/02/07 03:37:51;;;;;;;80.70;16.95;;;;;;;;;;5071945;28;20231;-67
2023/02/07 03:40:18;;;;;;;74.63;15.90;;;;;;;;;;5071749;28;20211;-67
2023/02/07 03:42:47;;;;;;;74.53;15.50;;;;;;;;;;5071814;28;20237;-67
2023/02/07 03:45:16;;;;;;;74.60;15.95;;;;;;;;;;5071613;28;20225;-66
2023/02/07 03:47:43;;;;;;;74.90;15.68;;;;;;;;;;5071612;28;20204;-67
2023/02/07 03:50:10;;;;;;;77.55;18.75;;;;;;;;;;5071186;28;20201;-67
2023/02/07 03:52:37;;;;;;;77.40;16.63;;;;;;;;;;5072843;28;20587;-67
2023/02/07 03:55:06;;;;;;;76.88;15.63;;;;;;;;;;5075575;28;20726;-67
2023/02/07 03:57:33;;;;;;;72.75;14.93;;;;;;;;;;5075598;28;20296;-67
2023/02/07 04:00:00;;;;;;;75.93;15.82;;;;;;;;;;5075116;28;20208;-67
2023/02/07 04:02:28;;;;;;;76.25;16.20;;;;;;;;;;5075314;28;20283;-67
2023/02/07 04:04:55;;;;;;;78.70;17.08;;;;;;;;;;5075490;28;20227;-67
2023/02/07 04:07:22;;;;;;;74.75;15.88;;;;;;;;;;5075250;28;20556;-66
2023/02/07 04:09:49;;;;;;;75.90;15.90;;;;;;;;;;5075069;28;20734;-67
2023/02/07 04:12:17;;;;;;;73.78;13.60;;;;;;;;;;5075403;28;20205;-67
2023/02/07 04:14:45;;;;;;;77.38;16.60;;;;;;;;;;5075364;28;20490;-67
2023/02/07 04:17:12;;;;;;;80.13;16.95;;;;;;;;;;5075169;28;20586;-67
2023/02/07 04:19:39;;;;;;;74.60;16.77;;;;;;;;;;5075034;28;20213;-67
2023/02/07 04:22:06;;;;;;;77.45;16.25;;;;;;;;;;5075064;28;20297;-67
2023/02/07 04:24:34;;;;;;;76.80;17.95;;;;;;;;;;5074918;28;20324;-67
2023/02/07 04:27:02;;;;;;;77.10;17.42;;;;;;;;;;5075134;28;20211;-67
2023/02/07 04:29:30;;;;;;;77.05;17.00;;;;;;;;;;5074485;28;20205;-67
2023/02/07 04:31:57;;;;;;;75.25;15.77;;;;;;;;;;5075152;28;20207;-67
2023/02/07 04:34:25;;;;;;;78.88;15.95;;;;;;;;;;5074698;28;20721;-67
2023/02/07 04:36:52;;;;;;;76.20;16.90;;;;;;;;;;5074973;28;20260;-67
2023/02/07 04:39:19;;;;;;;75.85;16.63;;;;;;;;;;5074427;28;20209;-67
2023/02/07 04:41:46;;;;;;;75.03;16.45;;;;;;;;;;5074800;28;20211;-67
2023/02/07 04:44:13;;;;;;;74.35;15.73;;;;;;;;;;5074523;28;20221;-67
2023/02/07 04:46:41;;;;;;;79.10;16.98;;;;;;;;;;5074799;28;20201;-67
2023/02/07 04:49:09;;;;;;;76.70;17.48;;;;;;;;;;5074426;28;20209;-67
2023/02/07 04:51:36;;;;;;;77.75;16.80;;;;;;;;;;5074900;28;20665;-67
2023/02/07 04:54:03;;;;;;;77.30;16.67;;;;;;;;;;5074317;28;20316;-67
2023/02/07 04:56:30;;;;;;;77.47;15.93;;;;;;;;;;5074704;28;20201;-67
2023/02/07 04:58:57;;;;;;;77.70;17.30;;;;;;;;;;5073976;28;20211;-67
2023/02/07 05:01:25;;;;;;;76.07;17.38;;;;;;;;;;5074442;28;20205;-67
2023/02/07 05:03:53;;;;;;;82.05;15.98;;;;;;;;;;5073816;28;20225;-67
2023/02/07 05:06:20;;;;;;;81.30;18.25;;;;;;;;;;5074288;28;20294;-67
2023/02/07 05:08:47;;;;;;;78.07;16.83;;;;;;;;;;5073801;28;20194;-67
2023/02/07 05:11:15;;;;;;;77.85;16.90;;;;;;;;;;5074142;28;20227;-67
2023/02/07 05:13:42;;;;;;;76.10;17.23;;;;;;;;;;5074182;28;20320;-67
2023/02/07 05:16:09;;;;;;;79.05;18.13;;;;;;;;;;5074398;28;20205;-67
2023/02/07 05:18:36;;;;;;;76.35;16.85;;;;;;;;;;5073833;28;20217;-67
2023/02/07 05:21:05;;;;;;;76.68;15.45;;;;;;;;;;5074129;28;20212;-67
2023/02/07 05:23:32;;;;;;;78.55;16.85;;;;;;;;;;5073806;28;20740;-67
2023/02/07 05:25:59;;;;;;;76.93;18.05;;;;;;;;;;5073716;28;20244;-67
2023/02/07 05:28:26;;;;;;;76.18;16.35;;;;;;;;;;5073968;28;20399;-67
2023/02/07 05:30:54;;;;;;;78.20;17.35;;;;;;;;;;5073946;28;20208;-67
2023/02/07 05:33:21;;;;;;;76.65;16.73;;;;;;;;;;5073775;28;20214;-67
2023/02/07 05:35:48;;;;;;;74.93;15.02;;;;;;;;;;5073797;28;20543;-67
2023/02/07 05:38:17;;;;;;;78.00;16.20;;;;;;;;;;5073526;28;20709;-67
2023/02/07 05:40:44;;;;;;;77.50;15.98;;;;;;;;;;5073374;28;20205;-67
2023/02/07 05:43:12;;;;;;;76.85;15.57;;;;;;;;;;5073751;28;20208;-67
2023/02/07 05:45:39;;;;;;;79.20;15.88;;;;;;;;;;5073475;28;20211;-67
2023/02/07 05:48:07;;;;;;;75.82;15.68;;;;;;;;;;5073398;28;20240;-67
2023/02/07 05:50:34;;;;;;;75.72;16.25;;;;;;;;;;5073354;28;20288;-67
2023/02/07 05:53:01;;;;;;;74.95;16.35;;;;;;;;;;5073293;28;20674;-67
2023/02/07 05:55:29;;;;;;;75.90;16.20;;;;;;;;;;5073660;28;20233;-67
2023/02/07 05:57:57;;;;;;;79.45;15.75;;;;;;;;;;5073371;28;20205;-66
2023/02/07 06:00:24;;;;;;;73.65;16.08;;;;;;;;;;5073087;28;20206;-67
2023/02/07 06:02:51;;;;;;;77.57;16.50;;;;;;;;;;5073194;28;20205;-67
2023/02/07 06:05:20;;;;;;;78.28;15.90;;;;;;;;;;5073003;28;20247;-67
2023/02/07 06:07:47;;;;;;;76.35;16.45;;;;;;;;;;5072934;28;20572;-67
2023/02/07 06:10:15;;;;;;;79.82;17.73;;;;;;;;;;5072794;28;20209;-67
2023/02/07 06:12:43;;;;;;;77.68;16.63;;;;;;;;;;5073111;28;20220;-67
2023/02/07 06:15:11;;;;;;;80.18;16.83;;;;;;;;;;5073087;28;20229;-67
2023/02/07 06:17:38;;;;;;;76.45;17.10;;;;;;;;;;5072184;28;20205;-67
2023/02/07 06:20:05;;;;;;;73.53;15.07;;;;;;;;;;5072545;28;20201;-67
2023/02/07 06:22:32;;;;;;;80.60;18.27;;;;;;;;;;5072915;28;20625;-67
2023/02/07 06:25:00;;;;;;;74.60;17.20;;;;;;;;;;5072709;28;20225;-67
2023/02/07 06:27:27;;;;;;;76.47;16.23;;;;;;;;;;5072787;28;20232;-67
2023/02/07 06:29:55;;;;;;;73.22;14.98;;;;;;;;;;5072304;28;20205;-67
2023/02/07 06:32:22;;;;;;;76.85;17.45;;;;;;;;;;5072577;28;20292;-67
2023/02/07 06:34:49;;;;;;;80.97;18.00;;;;;;;;;;5072507;28;20236;-67
2023/02/07 06:37:16;;;;;;;85.13;17.48;;;;;;;;;;5072743;28;20260;-67
2023/02/07 06:39:44;;;;;;;78.45;16.70;;;;;;;;;;5072252;28;20201;-67
2023/02/07 06:42:11;;;;;;;76.57;17.55;;;;;;;;;;5072810;28;20205;-67
2023/02/07 06:44:38;;;;;;;75.18;15.75;;;;;;;;;;5072252;28;20714;-67
2023/02/07 06:47:06;;;;;;;76.75;16.85;;;;;;;;;;5072335;28;20216;-67
2023/02/07 06:49:33;;;;;;;77.85;17.27;;;;;;;;;;5072335;28;20214;-67
2023/02/07 06:52:01;;;;;;;79.30;16.52;;;;;;;;;;5072264;28;20673;-66
2023/02/07 06:54:28;;;;;;;76.65;15.65;;;;;;;;;;5072051;28;20711;-66
2023/02/07 06:56:55;;;;;;;74.82;15.13;;;;;;;;;;5072919;28;20215;-67
2023/02/07 06:59:22;;;;;;;72.10;14.80;;;;;;;;;;5071961;28;20274;-66
2023/02/07 07:01:49;;;;;;;80.18;15.10;;;;;;;;;;5072570;28;20284;-67
2023/02/07 07:04:18;;;;;;;73.35;13.85;;;;;;;;;;5072056;28;20225;-67
2023/02/07 07:06:45;;;;;;;76.95;15.40;;;;;;;;;;5071956;28;20216;-66
2023/02/07 07:09:13;;;;;;;79.15;16.77;;;;;;;;;;5071865;28;20209;-67
2023/02/07 07:11:41;;;;;;;69.60;13.35;;;;;;;;;;5071898;28;20208;-66
2023/02/07 07:14:09;;;;;;;71.97;15.30;;;;;;;;;;5071612;28;20229;-67
2023/02/07 07:16:36;;;;;;;78.75;15.35;;;;;;;;;;5071742;28;20263;-67
2023/02/07 07:19:03;;;;;;;73.40;14.20;;;;;;;;;;5071678;28;20240;-67
2023/02/07 07:21:32;;;;;;;69.07;11.35;;;;;;;;;;5071993;28;20205;-67
2023/02/07 07:23:59;;;;;;;73.85;13.10;;;;;;;;;;5071767;28;20744;-66
2023/02/07 07:26:26;;;;;;;71.57;14.00;;;;;;;;;;5071683;28;20205;-67
2023/02/07 07:28:56;;;;;;;75.38;13.05;;;;;;;;;;5071721;28;20205;-67
2023/02/07 07:31:24;;;;;;;70.15;13.13;;;;;;;;;;5071867;28;20274;-66
2023/02/07 07:33:51;;;;;;;68.28;11.75;;;;;;;;;;5071663;28;20312;-67
2023/02/07 07:36:18;;;;;;;74.03;13.10;;;;;;;;;;5071958;28;20201;-67
2023/02/07 07:38:46;;;;;;;71.28;12.25;;;;;;;;;;5071228;28;20798;-67
2023/02/07 07:41:13;;;;;;;75.38;13.45;;;;;;;;;;5071566;28;20201;-67
2023/02/07 07:43:41;;;;;;;76.80;14.27;;;;;;;;;;5071757;28;20586;-67
2023/02/07 07:46:08;;;;;;;67.95;12.63;;;;;;;;;;5071783;28;20203;-67
2023/02/07 07:48:35;;;;;;;75.22;13.85;;;;;;;;;;5071299;28;20205;-67
2023/02/07 07:51:02;;;;;;;72.65;14.35;;;;;;;;;;5071582;28;20218;-67
2023/02/07 07:53:29;;;;;;;75.90;16.02;;;;;;;;;;5071551;28;20229;-67
2023/02/07 07:55:58;;;;;;;73.93;15.23;;;;;;;;;;5071343;28;20323;-67
2023/02/07 07:58:26;;;;;;;74.53;14.18;;;;;;;;;;5071796;28;20209;-67
2023/02/07 08:00:53;;;;;;;73.20;14.30;;;;;;;;;;5071305;28;20209;-67
2023/02/07 08:03:21;;;;;;;74.25;15.85;;;;;;;;;;5071412;28;20587;-67
2023/02/07 08:05:48;;;;;;;74.07;15.88;;;;;;;;;;5071609;28;20201;-66
2023/02/07 08:08:16;;;;;;;75.82;16.42;;;;;;;;;;5071196;28;20209;-66
2023/02/07 08:10:43;;;;;;;78.60;16.77;;;;;;;;;;5071283;28;20205;-67
2023/02/07 08:13:12;;;;;;;77.50;16.08;;;;;;;;;;5071294;28;20211;-67
2023/02/07 08:15:39;;;;;;;75.18;13.15;;;;;;;;;;5071284;28;20229;-67
2023/02/07 08:18:06;;;;;;;70.93;13.25;;;;;;;;;;5071278;28;20235;-67
2023/02/07 08:20:33;;;;;;;76.00;14.50;;;;;;;;;;5070993;28;20301;-67
2023/02/07 08:23:01;;;;;;;72.95;14.80;;;;;;;;;;5071358;28;20296;-67
2023/02/07 08:25:28;;;;;;;73.10;14.55;;;;;;;;;;5071439;28;20231;-67
2023/02/07 08:27:56;;;;;;;70.70;14.85;;;;;;;;;;5071292;28;20566;-67
2023/02/07 08:30:24;;;;;;;74.50;15.00;;;;;;;;;;5070900;28;20209;-67
2023/02/07 08:32:51;;;;;;;71.50;14.40;;;;;;;;;;5071145;28;20606;-67
2023/02/07 08:35:19;;;;;;;71.18;14.15;;;;;;;;;;5070914;28;20231;-67
2023/02/07 08:37:46;;;;;;;71.72;14.20;;;;;;;;;;5071290;28;20323;-67
2023/02/07 08:40:13;;;;;;;71.75;14.02;;;;;;;;;;5072643;28;20700;-67
2023/02/07 08:42:40;;;;;;;71.60;13.48;;;;;;;;;;5074862;28;20233;-67
2023/02/07 08:45:08;;;;;;;73.80;13.50;;;;;;;;;;5074569;28;20221;-67
2023/02/07 08:47:36;;;;;;;70.53;13.30;;;;;;;;;;5074597;28;20227;-67
2023/02/07 08:50:04;;;;;;;71.35;13.35;;;;;;;;;;5074163;28;20231;-67
2023/02/07 08:52:31;;;;;;;70.35;13.90;;;;;;;;;;5074657;28;20204;-67
2023/02/07 08:54:58;;;;;;;70.78;13.52;;;;;;;;;;5074423;28;20259;-67
2023/02/07 08:57:25;;;;;;;71.90;14.10;;;;;;;;;;5074557;28;20202;-67
2023/02/07 08:59:52;;;;;;;71.50;13.43;;;;;;;;;;5074039;28;20206;-67
2023/02/07 09:02:19;;;;;;;71.38;12.43;;;;;;;;;;5074492;28;20314;-67
2023/02/07 09:04:48;;;;;;;69.72;13.73;;;;;;;;;;5074040;28;20313;-67
2023/02/07 09:07:15;;;;;;;71.25;12.85;;;;;;;;;;5074378;28;20302;-67
2023/02/07 09:09:42;;;;;;;69.97;13.68;;;;;;;;;;5073867;28;20589;-67
2023/02/07 09:12:10;;;;;;;69.20;12.88;;;;;;;;;;5074084;28;20690;-67
2023/02/07 09:14:38;;;;;;;69.88;12.77;;;;;;;;;;5073950;28;20246;-67
2023/02/07 09:17:05;;;;;;;73.07;14.20;;;;;;;;;;5073906;28;20207;-67
2023/02/07 09:19:32;;;;;;;77.20;14.45;;;;;;;;;;5073818;28;20211;-67
2023/02/07 09:22:01;;;;;;;74.90;15.32;;;;;;;;;;5073843;28;20296;-67
2023/02/07 09:24:28;;;;;;;77.28;15.25;;;;;;;;;;5073790;28;20241;-67
2023/02/07 09:26:55;;;;;;;78.15;14.48;;;;;;;;;;5073888;28;20587;-67
2023/02/07 09:29:22;;;;;;;72.40;13.80;;;;;;;;;;5073571;28;20208;-67
2023/02/07 09:31:50;;;;;;;69.40;13.52;;;;;;;;;;5073684;28;20722;-67
2023/02/07 09:34:17;;;;;;;71.85;13.02;;;;;;;;;;5073963;28;20234;-67
2023/02/07 09:36:44;;;;;;;68.65;12.07;;;;;;;;;;5073645;28;20721;-67
2023/02/07 09:39:12;;;;;;;75.60;15.80;;;;;;;;;;5073483;28;20211;-67
2023/02/07 09:41:43;;;;;;;71.82;14.55;;;;;;;;;;5073580;28;20211;-67
2023/02/07 09:44:19;;;;;;;71.05;13.52;;;;;;;;;;5073487;28;20242;-67
2023/02/07 09:46:48;;;;;;;72.35;13.30;;;;;;;;;;5073645;28;20570;-67
2023/02/07 09:49:19;;;;;;;69.45;12.70;;;;;;;;;;5072990;28;20697;-67
2023/02/07 09:51:47;;;;;;;69.82;13.65;;;;;;;;;;5073245;28;20299;-67
2023/02/07 09:54:19;;;;;;;73.22;12.77;;;;;;;;;;5073260;28;20235;-67
2023/02/07 09:56:47;;;;;;;68.07;12.32;;;;;;;;;;5073168;28;20228;-67
2023/02/07 09:59:19;;;;;;;70.72;13.38;;;;;;;;;;5073030;28;20209;-68
2023/02/07 10:01:48;;;;;;;69.57;14.15;;;;;;;;;;5073295;28;20291;-68
2023/02/07 10:04:29;;;;;;;69.35;13.32;;;;;;;;;;5073156;28;20232;-68
2023/02/07 10:06:57;;;;;;;66.80;11.53;;;;;;;;;;5073098;28;20588;-68
2023/02/07 10:09:27;;;;;;;67.60;10.50;;;;;;;;;;5072803;28;20478;-68
2023/02/07 10:11:56;;;;;;;66.93;10.60;;;;;;;;;;5072881;28;20444;-68
2023/02/07 10:14:30;;;;;;;67.70;11.10;;;;;;;;;;5072886;28;20466;-68
2023/02/07 10:17:15;;;;;;;67.53;12.20;;;;;;;;;;5072704;28;20487;-68
2023/02/07 10:19:47;;;;;;;68.20;11.77;;;;;;;;;;5062376;28;20821;-68
2023/02/07 10:22:19;;;;;;;68.17;11.50;;;;;;;;;;5072889;28;20463;-68
2023/02/07 10:25:03;;;;;;;67.67;11.97;;;;;;;;;;5072534;28;20536;-68
2023/02/07 10:27:31;;;;;;;67.03;11.73;;;;;;;;;;5072628;28;20471;-68
2023/02/07 10:30:02;;;;;;;68.40;10.97;;;;;;;;;;5072048;28;20466;-67
2023/02/07 10:32:32;;;;;;;67.83;11.10;;;;;;;;;;5072500;28;20447;-68
2023/02/07 10:35:01;;;;;;;66.73;11.37;;;;;;;;;;5072469;28;20481;-68
2023/02/07 10:37:30;;;;;;;66.37;10.63;;;;;;;;;;5072386;28;20505;-68
2023/02/07 10:40:01;;;;;;;66.17;11.13;;;;;;;;;;5072182;28;20535;-68
2023/02/07 10:42:29;;;;;;;66.77;11.90;;;;;;;;;;5072181;28;20443;-68
2023/02/07 10:44:57;;;;;;;67.20;11.93;;;;;;;;;;5072443;28;20494;-68
2023/02/07 10:47:25;;;;;;;68.13;11.87;;;;;;;;;;5072374;28;20471;-68
2023/02/07 10:49:53;;;;;;;66.07;10.87;;;;;;;;;;5071915;28;20456;-68
2023/02/07 10:52:27;;;;;;;66.73;11.30;;;;;;;;;;5072256;28;20443;-68
2023/02/07 10:54:55;;;;;;;72.70;12.77;;;;;;;;;;5071817;28;21002;-67
2023/02/07 10:57:24;;;;;;;71.50;10.77;;;;;;;;;;5072001;28;20954;-68
2023/02/07 10:59:57;;;;;;;68.80;11.90;;;;;;;;;;5071872;28;20444;-66
2023/02/07 11:02:36;;;;;;;66.83;12.10;;;;;;;;;;5071621;28;20447;-66
2023/02/07 11:05:05;;;;;;;68.77;12.53;;;;;;;;;;5071925;28;20924;-66
2023/02/07 11:07:33;;;;;;;68.87;11.47;;;;;;;;;;5071819;28;20827;-66
2023/02/07 11:10:14;;;;;;;66.70;12.03;;;;;;;;;;5071751;28;20474;-66
2023/02/07 11:12:47;;;;;;;66.93;12.60;;;;;;;;;;5071951;28;20451;-66
2023/02/07 11:15:17;;;;;;;66.50;11.60;;;;;;;;;;5071839;28;20554;-66
2023/02/07 11:17:48;;;;;;;65.97;11.93;;;;;;;;;;5071753;28;20827;-66
2023/02/07 11:20:20;;;;;;;65.10;11.60;;;;;;;;;;5071375;28;20450;-66
2023/02/07 11:22:48;;;;;;;69.27;12.80;;;;;;;;;;5071932;28;20994;-66
2023/02/07 11:25:15;;;;;;;67.27;12.53;;;;;;;;;;5071518;28;20481;-66
2023/02/07 11:27:42;;;;;;;70.00;12.60;;;;;;;;;;5071760;28;20443;-66
2023/02/07 11:30:16;;;;;;;65.97;12.30;;;;;;;;;;5071133;28;20440;-66
2023/02/07 11:32:44;;;;;;;66.57;11.87;;;;;;;;;;5071614;28;20960;-66
2023/02/07 11:35:19;;;;;;;67.60;13.40;;;;;;;;;;5071628;28;20899;-66
2023/02/07 11:37:48;;;;;;;68.10;12.00;;;;;;;;;;5071698;28;20541;-66
2023/02/07 11:40:21;;;;;;;68.53;12.07;;;;;;;;;;5071244;28;20824;-66
2023/02/07 11:42:49;;;;;;;67.53;12.50;;;;;;;;;;5071513;28;20782;-66
2023/02/07 11:45:21;;;;;;;66.90;12.33;;;;;;;;;;5071562;28;20471;-66
2023/02/07 11:47:49;;;;;;;69.77;14.57;;;;;;;;;;5071603;28;20454;-66
2023/02/07 11:50:19;;;;;;;65.23;10.93;;;;;;;;;;5071172;28;20827;-66
2023/02/07 11:52:50;;;;;;;66.00;10.90;;;;;;;;;;5071462;28;20827;-66
2023/02/07 11:55:21;;;;;;;63.57;9.97;;;;;;;;;;5071041;28;20489;-66
2023/02/07 11:57:48;;;;;;;65.90;11.00;;;;;;;;;;5071542;28;20443;-66
2023/02/07 12:00:20;;;;;;;65.77;10.47;;;;;;;;;;5070888;28;20455;-66
2023/02/07 12:02:51;;;;;;;65.80;10.97;;;;;;;;;;5071167;28;20449;-66
2023/02/07 12:05:20;;;;;;;64.70;11.30;;;;;;;;;;5071166;28;20471;-66
2023/02/07 12:07:49;;;;;;;63.07;9.30;;;;;;;;;;5071107;28;20453;-66
2023/02/07 12:10:21;;;;;;;64.97;9.80;;;;;;;;;;5070708;28;20451;-66
2023/02/07 12:12:50;;;;;;;68.95;10.20;;;;;;;;;;5070266;28;20434;-66
2023/02/07 12:15:21;;;;;;;64.00;9.63;;;;;;;;;;5073283;28;20229;-66
2023/02/07 12:17:56;;;;;;;62.90;9.10;;;;;;;;;;5075066;28;20812;-66
2023/02/07 12:20:25;;;;;;;63.07;9.00;;;;;;;;;;5074638;28;20446;-66
2023/02/07 12:22:54;;;;;;;63.10;9.17;;;;;;;;;;5074981;28;20832;-66
2023/02/07 12:25:23;;;;;;;64.50;9.50;;;;;;;;;;5074776;28;20479;-66
2023/02/07 12:27:51;;;;;;;65.57;9.30;;;;;;;;;;5074684;28;20974;-67
2023/02/07 12:30:22;;;;;;;64.13;9.03;;;;;;;;;;5074530;28;20446;-67
2023/02/07 12:32:53;;;;;;;65.80;8.90;;;;;;;;;;5074694;28;20446;-66
2023/02/07 12:35:23;;;;;;;63.97;9.87;;;;;;;;;;5074500;28;20554;-67
2023/02/07 12:37:53;;;;;;;65.33;9.70;;;;;;;;;;5074734;28;20439;-66
2023/02/07 12:40:23;;;;;;;64.17;9.70;;;;;;;;;;5074455;28;20839;-66
2023/02/07 12:42:54;;;;;;;64.63;9.13;;;;;;;;;;5074471;28;20451;-66
2023/02/07 12:45:28;;;;;;;62.70;9.53;;;;;;;;;;5074220;28;20485;-66
2023/02/07 12:47:58;;;;;;;63.10;9.73;;;;;;;;;;5074329;28;20450;-66
2023/02/07 12:50:32;;;;;;;64.03;9.73;;;;;;;;;;5074239;28;20451;-66
2023/02/07 12:53:06;;;;;;;62.73;8.77;;;;;;;;;;5074424;28;20787;-66
2023/02/07 12:55:39;;;;;;;63.87;9.40;;;;;;;;;;5074138;28;20991;-66
2023/02/07 12:58:13;;;;;;;64.17;10.23;;;;;;;;;;5073936;28;20455;-66
2023/02/07 13:00:48;;;;;;;64.90;10.40;;;;;;;;;;5074154;28;20457;-66
2023/02/07 13:03:21;;;;;;;62.70;8.97;;;;;;;;;;5074199;28;20549;-66
2023/02/07 13:05:54;;;;;;;63.57;8.50;;;;;;;;;;5074134;28;20448;-67
2023/02/07 13:08:27;;;;;;;64.60;8.97;;;;;;;;;;5073877;28;20450;-66
2023/02/07 13:11:00;;;;;;;65.90;8.60;;;;;;;;;;5073679;28;20955;-66
2023/02/07 13:13:31;;;;;;;62.27;7.70;;;;;;;;;;5074016;28;20471;-66
2023/02/07 13:16:03;;;;;;;61.87;8.47;;;;;;;;;;5073829;28;20486;-66
2023/02/07 13:18:35;;;;;;;63.90;9.43;;;;;;;;;;5073709;28;20454;-66
2023/02/07 13:21:07;;;;;;;62.87;7.87;;;;;;;;;;5073974;28;20816;-66
2023/02/07 13:23:37;;;;;;;70.27;8.60;;;;;;;;;;5072999;28;20998;-66
2023/02/07 13:26:06;;;;;;;62.90;8.00;;;;;;;;;;5071529;28;20455;-66
2023/02/07 13:28:37;;;;;;;63.20;7.73;;;;;;;;;;5071925;28;21069;-66
2023/02/07 13:31:07;;;;;;;65.90;8.50;;;;;;;;;;5071995;28;20457;-66
2023/02/07 13:33:35;;;;;;;61.87;7.97;;;;;;;;;;5071948;28;20978;-66
2023/02/07 13:36:05;;;;;;;61.93;8.00;;;;;;;;;;5071776;28;20565;-66
2023/02/07 13:38:50;;;;;;;68.30;8.83;;;;;;;;;;5072360;28;20443;-66
2023/02/07 13:41:21;;;;;;;63.00;8.70;;;;;;;;;;5073366;28;20461;-66
2023/02/07 13:43:54;;;;;;;63.90;8.40;;;;;;;;;;5073263;28;20856;-66
2023/02/07 13:46:31;;;;;;;67.17;9.40;;;;;;;;;;5073821;28;20450;-66
2023/02/07 13:49:02;;;;;;;62.87;7.90;;;;;;;;;;5072917;28;20443;-66
2023/02/07 13:51:31;;;;;;;62.07;8.03;;;;;;;;;;5073328;28;20446;-66
2023/02/07 13:54:01;;;;;;;63.60;8.87;;;;;;;;;;5073051;28;20467;-66
2023/02/07 13:59:38;;;;;;;61.60;7.90;;;;;;;;;;5072777;28;20939;-67
2023/02/07 14:02:13;;;;;;;63.17;8.20;;;;;;;;;;5073178;28;20739;-67
2023/02/07 14:04:47;;;;;;;62.67;7.73;;;;;;;;;;5072822;28;20506;-67
2023/02/07 14:07:20;;;;;;;64.80;7.90;;;;;;;;;;5073128;28;20451;-67
2023/02/07 14:09:48;;;;;;;62.37;7.30;;;;;;;;;;5072717;28;20915;-67
2023/02/07 14:12:18;;;;;;;61.77;7.60;;;;;;;;;;5072806;28;20501;-67
2023/02/07 14:14:45;;;;;;;64.27;8.87;;;;;;;;;;5072787;28;20459;-67
2023/02/07 14:17:15;;;;;;;61.30;7.67;;;;;;;;;;5072529;28;20483;-67
2023/02/07 14:19:52;;;;;;;64.37;8.67;;;;;;;;;;5072643;28;20466;-67
2023/02/07 14:22:20;;;;;;;62.13;8.00;;;;;;;;;;5072514;28;20970;-67
2023/02/07 14:24:49;;;;;;;62.93;8.40;;;;;;;;;;5072904;28;20842;-67
2023/02/07 14:27:27;;;;;;;65.03;7.60;;;;;;;;;;5072548;28;20509;-67
2023/02/07 14:30:13;;;;;;;63.60;7.80;;;;;;;;;;5072329;28;20451;-67
2023/02/07 14:32:43;;;;;;;61.70;7.33;;;;;;;;;;5072690;28;20458;-67